Time,TemperatureF,DewpointF,PressureIn,WindDirection,WindDirectionDegrees,WindSpeedMPH,WindSpeedGustMPH,Humidity,HourlyPrecipIn,Conditions,Clouds,dailyrainin,SoftwareType,DateUTC
2013-01-17 00:12:00,-999.0,-99.9,-100.00,North,351,16.0,21.0,-999,-99.99,,,-99.99,,2013-01-17 05:12:00,
2013-01-17 01:42:00,-999.0,-99.9,-100.00,North,5,14.0,23.0,-999,-99.99,,,-99.99,,2013-01-17 06:42:00,
2013-01-17 03:12:00,-999.0,-99.9,-100.00,NE,45,17.0,21.0,-999,-99.99,,,-99.99,,2013-01-17 08:12:00,
2013-01-17 03:44:00,-999.0,-99.9,-100.00,NE,52,17.0,21.0,-999,-99.99,,,-99.99,,2013-01-17 08:44:00,
2013-01-17 04:43:00,-999.0,-99.9,-100.00,NE,56,11.0,15.0,-999,-99.99,,,-99.99,,2013-01-17 09:43:00,
2013-01-17 05:12:00,-999.0,-99.9,-100.00,ESE,106,7.0,11.0,-999,-99.99,,,-99.99,,2013-01-17 10:12:00,
2013-01-17 06:12:00,-999.0,-99.9,-100.00,ESE,109,7.0,9.0,-999,-99.99,,,-99.99,,2013-01-17 11:12:00,
2013-01-17 06:23:00,-999.0,-99.9,-100.00,East,91,7.0,10.0,-999,-99.99,,,-99.99,,2013-01-17 11:23:00,
2013-01-17 06:43:00,-999.0,-99.9,-100.00,ESE,109,7.0,9.0,-999,-99.99,,,-99.99,,2013-01-17 11:43:00,
2013-01-17 08:13:00,-999.0,-99.9,-100.00,ENE,67,11.0,13.0,-999,-99.99,,,-99.99,,2013-01-17 13:13:00,
2013-01-17 09:43:00,-999.0,-99.9,-100.00,ESE,111,7.0,11.0,-999,-99.99,,,-99.99,,2013-01-17 14:43:00,
2013-01-17 10:13:00,-999.0,-99.9,-100.00,SSE,149,8.0,11.0,-999,-99.99,,,-99.99,,2013-01-17 15:13:00,
2013-01-17 11:13:00,-999.0,-99.9,-100.00,SE,129,8.0,13.0,-999,-99.99,,,-99.99,,2013-01-17 16:13:00,
2013-01-17 13:04:00,-999.0,-99.9,-100.00,SE,128,7.0,9.0,-999,-99.99,,,-99.99,,2013-01-17 18:04:00,
2013-01-17 13:13:00,-999.0,-99.9,-100.00,SE,124,6.0,9.0,-999,-99.99,,,-99.99,,2013-01-17 18:13:00,
2013-01-17 14:43:00,-999.0,-99.9,-100.00,East,99,5.0,7.0,-999,-99.99,,,-99.99,,2013-01-17 19:43:00,
2013-01-17 15:13:00,-999.0,-99.9,-100.00,NE,52,4.0,4.0,-999,-99.99,,,-99.99,,2013-01-17 20:13:00,
2013-01-17 15:54:00,-999.0,-99.9,-100.00,WNW,296,4.0,7.0,-999,-99.99,,,-99.99,,2013-01-17 20:54:00,
2013-01-17 16:13:00,-999.0,-99.9,-100.00,WNW,283,29.0,36.0,-999,-99.99,,,-99.99,,2013-01-17 21:13:00,
2013-01-17 16:43:00,-999.0,-99.9,-100.00,WNW,292,32.0,37.0,-999,-99.99,,,-99.99,,2013-01-17 21:43:00,
2013-01-17 16:54:00,-999.0,-99.9,-100.00,WNW,282,26.0,32.0,-999,-99.99,,,-99.99,,2013-01-17 21:54:00,
2013-01-17 17:43:00,-999.0,-99.9,-100.00,WNW,290,25.0,31.0,-999,-99.99,,,-99.99,,2013-01-17 22:43:00,
2013-01-17 18:13:00,-999.0,-99.9,-100.00,WNW,295,28.0,35.0,-999,-99.99,,,-99.99,,2013-01-17 23:13:00,
2013-01-17 19:43:00,-999.0,-99.9,-100.00,WNW,284,25.0,31.0,-999,-99.99,,,-99.99,,2013-01-18 00:43:00,
2013-01-17 21:12:00,-999.0,-99.9,-100.00,NW,313,19.0,28.0,-999,-99.99,,,-99.99,,2013-01-18 02:12:00,
2013-01-17 21:43:00,-999.0,-99.9,-100.00,NW,313,20.0,26.0,-999,-99.99,,,-99.99,,2013-01-18 02:43:00,
2013-01-17 22:43:00,-999.0,-99.9,-100.00,West,260,22.0,26.0,-999,-99.99,,,-99.99,,2013-01-18 03:43:00,
2013-01-17 23:12:00,-999.0,-99.9,-100.00,WSW,240,13.0,21.0,-999,-99.99,,,-99.99,,2013-01-18 04:12:00,